Time;durP1;ratioP1;P1;durP2;ratioP2;P2;SDS_P1;SDS_P2;PMS_P1;PMS_P2;Temp;Humidity;BMP_temperature;BMP_pressure;BME280_temperature;BME280_humidity;BME280_pressure;Samples;Min_cycle;Max_cycle;Signal;HPM_P1;HPM_P2
2022/11/03 00:01:38;;;;;;;8.93;2.20;;;11.00;99.90;;;;;;4910874;29;20051;-62
2022/11/03 00:04:05;;;;;;;7.70;2.10;;;10.90;99.90;;;;;;4926445;29;20042;-64
2022/11/03 00:06:31;;;;;;;10.30;2.20;;;11.00;99.90;;;;;;4929394;29;20043;-65
2022/11/03 00:09:02;;;;;;;14.27;2.10;;;10.90;99.90;;;;;;4931383;29;20099;-64
2022/11/03 00:11:31;;;;;;;15.23;2.20;;;10.90;99.90;;;;;;4907747;29;20028;-63
2022/11/03 00:13:57;;;;;;;12.15;2.10;;;10.90;99.90;;;;;;4926114;29;20475;-63
2022/11/03 00:16:22;;;;;;;9.13;2.17;;;10.90;99.90;;;;;;4924268;29;20044;-65
2022/11/03 00:18:48;;;;;;;10.60;2.15;;;10.90;99.90;;;;;;4924546;29;20032;-64
2022/11/03 00:21:13;;;;;;;11.90;2.20;;;10.90;99.90;;;;;;4924313;29;20031;-64
2022/11/03 00:23:42;;;;;;;10.15;2.70;;;10.90;99.90;;;;;;4928120;29;20309;-64
2022/11/03 00:26:12;;;;;;;13.43;2.50;;;10.90;99.90;;;;;;4924585;29;20035;-64
2022/11/03 00:28:39;;;;;;;11.43;2.53;;;10.90;99.90;;;;;;4924817;29;20497;-63
2022/11/03 00:31:26;;;;;;;12.02;2.47;;;10.90;99.90;;;;;;4930166;29;20090;-64
2022/11/03 00:33:53;;;;;;;7.30;2.38;;;10.90;99.90;;;;;;4905935;29;20043;-63
2022/11/03 00:36:27;;;;;;;9.57;2.22;;;11.00;99.90;;;;;;4928137;29;20047;-62
2022/11/03 00:38:53;;;;;;;7.95;2.03;;;10.90;99.90;;;;;;4907939;29;20066;-63
2022/11/03 00:41:20;;;;;;;11.60;2.75;;;10.90;99.90;;;;;;4917509;29;20048;-64
2022/11/03 00:43:47;;;;;;;9.68;2.30;;;11.00;99.90;;;;;;4905295;29;20059;-64
2022/11/03 00:46:13;;;;;;;13.82;2.38;;;10.80;99.90;;;;;;4910065;29;20043;-63
2022/11/03 00:48:40;;;;;;;9.55;1.90;;;10.80;99.90;;;;;;4924337;29;20036;-63
2022/11/03 00:51:12;;;;;;;11.02;2.15;;;10.80;99.90;;;;;;4916213;29;20048;-64
2022/11/03 00:53:41;;;;;;;10.15;2.28;;;10.80;99.90;;;;;;4932434;29;20090;-63
2022/11/03 00:56:10;;;;;;;8.43;2.50;;;10.80;99.90;;;;;;4913479;29;20043;-62
2022/11/03 00:58:36;;;;;;;12.38;2.40;;;10.80;99.90;;;;;;4929410;29;20055;-64
2022/11/03 01:01:06;;;;;;;11.52;2.10;;;10.70;99.90;;;;;;4927291;29;20082;-65
2022/11/03 01:03:33;;;;;;;13.77;2.50;;;10.80;99.90;;;;;;4915472;29;20530;-65
2022/11/03 01:08:43;;;;;;;15.38;2.45;;;10.70;99.90;;;;;;4922759;29;20043;-65
2022/11/03 01:13:59;;;;;;;13.13;2.38;;;10.70;99.90;;;;;;4909142;29;20122;-63
2022/11/03 01:16:26;;;;;;;11.35;2.45;;;10.60;99.90;;;;;;4925500;29;20058;-64
2022/11/03 01:18:52;;;;;;;10.07;2.53;;;10.60;99.90;;;;;;4904102;29;20130;-64
2022/11/03 01:21:18;;;;;;;12.65;2.65;;;10.70;99.90;;;;;;4925535;29;20126;-64
2022/11/03 01:23:43;;;;;;;12.20;2.63;;;10.60;99.90;;;;;;4907221;29;20063;-64
2022/11/03 01:26:11;;;;;;;9.82;2.58;;;10.60;99.90;;;;;;4924519;29;20502;-63
2022/11/03 01:28:38;;;;;;;10.45;2.58;;;10.60;99.90;;;;;;4924406;29;20044;-62
2022/11/03 01:31:09;;;;;;;8.95;2.40;;;10.60;99.90;;;;;;4930443;29;20669;-63
2022/11/03 01:33:34;;;;;;;10.23;2.40;;;10.60;99.90;;;;;;4925485;29;20036;-64
2022/11/03 01:36:00;;;;;;;10.63;2.28;;;10.60;99.90;;;;;;4928801;29;20059;-62
2022/11/03 01:38:26;;;;;;;12.93;2.33;;;10.60;99.90;;;;;;4910588;29;20043;-62
2022/11/03 01:40:51;;;;;;;11.02;2.30;;;10.60;99.90;;;;;;4937180;29;20044;-64
2022/11/03 01:43:22;;;;;;;9.32;2.42;;;10.70;99.90;;;;;;4934994;29;20036;-63
2022/11/03 01:46:05;;;;;;;10.23;2.85;;;10.60;99.90;;;;;;4918584;29;20054;-64
2022/11/03 01:48:33;;;;;;;12.65;2.40;;;10.60;99.90;;;;;;4935409;29;20082;-63
2022/11/03 01:51:00;;;;;;;9.35;2.42;;;10.50;99.90;;;;;;4938071;29;20043;-63
2022/11/03 01:53:27;;;;;;;9.93;2.25;;;10.60;99.90;;;;;;4931119;29;20118;-63
2022/11/03 01:55:55;;;;;;;13.57;2.72;;;10.50;99.90;;;;;;4926230;29;20361;-63
2022/11/03 01:58:29;;;;;;;11.55;2.78;;;10.60;99.90;;;;;;4933260;29;20492;-63
2022/11/03 02:00:58;;;;;;;10.63;2.47;;;10.60;99.90;;;;;;4930080;29;20077;-64
2022/11/03 02:03:25;;;;;;;11.05;2.80;;;10.50;99.90;;;;;;4929635;29;20048;-63
2022/11/03 02:05:52;;;;;;;6.47;1.80;;;10.60;99.90;;;;;;4913920;29;20498;-65
2022/11/03 02:08:30;;;;;;;13.10;2.72;;;10.50;99.90;;;;;;4934130;29;20094;-64
2022/11/03 02:10:56;;;;;;;9.95;2.97;;;10.50;99.90;;;;;;4926231;29;20052;-65
2022/11/03 02:13:24;;;;;;;10.48;2.45;;;10.50;99.90;;;;;;4909590;29;20428;-64
2022/11/03 02:15:56;;;;;;;13.18;2.35;;;10.60;99.90;;;;;;4931797;29;20074;-65
2022/11/03 02:18:26;;;;;;;9.50;2.53;;;10.60;99.90;;;;;;4892682;29;20035;-65
2022/11/03 02:21:01;;;;;;;;;;;10.60;99.90;;;;;;4930991;29;20035;-65
2022/11/03 02:23:48;;;;;;;11.40;2.70;;;10.60;99.90;;;;;;4911123;29;20431;-63
2022/11/03 02:26:15;;;;;;;12.88;2.10;;;10.80;99.90;;;;;;4914334;29;20109;-64
2022/11/03 02:28:41;;;;;;;14.82;3.15;;;10.70;99.90;;;;;;4925152;29;20042;-65
2022/11/03 02:31:13;;;;;;;10.95;2.15;;;10.70;99.90;;;;;;4912346;29;20035;-65
2022/11/03 02:34:04;;;;;;;11.70;2.67;;;10.80;99.90;;;;;;4897452;29;20028;-64
2022/11/03 02:36:45;;;;;;;13.43;2.47;;;10.70;99.90;;;;;;4911305;29;20523;-64
2022/11/03 02:39:13;;;;;;;;;;;10.50;99.90;;;;;;4924938;29;20353;-63
2022/11/03 02:41:40;;;;;;;10.50;2.25;;;10.70;99.90;;;;;;4927301;29;19926;-64
2022/11/03 02:44:13;;;;;;;6.78;2.22;;;10.70;99.90;;;;;;4927099;29;20044;-65
2022/11/03 02:46:41;;;;;;;10.70;2.42;;;10.70;99.90;;;;;;4925955;29;20058;-64
2022/11/03 02:49:06;;;;;;;10.57;2.40;;;10.80;99.90;;;;;;4925681;29;20040;-64
2022/11/03 02:51:33;;;;;;;8.13;2.47;;;10.80;99.90;;;;;;4929113;29;20491;-65
2022/11/03 02:54:13;;;;;;;7.28;2.13;;;10.80;99.90;;;;;;4928311;29;20048;-64
2022/11/03 02:57:01;;;;;;;11.00;2.30;;;10.80;99.90;;;;;;4921153;29;20567;-64
2022/11/03 02:59:40;;;;;;;9.00;2.67;;;10.70;99.90;;;;;;4910722;29;20051;-64
2022/11/03 03:02:14;;;;;;;15.65;2.38;;;10.70;99.90;;;;;;4925111;29;20054;-63
2022/11/03 03:04:44;;;;;;;10.57;2.05;;;10.80;99.90;;;;;;4934119;29;20047;-65
2022/11/03 03:07:14;;;;;;;11.00;1.80;;;10.80;99.90;;;;;;4912516;29;20517;-65
2022/11/03 03:09:47;;;;;;;15.02;2.22;;;10.60;99.90;;;;;;4928750;29;20103;-63
2022/11/03 03:12:16;;;;;;;10.05;2.58;;;10.70;99.90;;;;;;4916480;29;20036;-63
2022/11/03 03:14:44;;;;;;;13.35;2.15;;;10.70;99.90;;;;;;4926631;29;20420;-64
2022/11/03 03:17:17;;;;;;;12.70;2.40;;;10.80;99.90;;;;;;4930545;29;20138;-64
2022/11/03 03:19:49;;;;;;;9.25;2.15;;;10.80;99.90;;;;;;4933694;29;20036;-64
2022/11/03 03:22:27;;;;;;;10.30;2.55;;;10.60;99.90;;;;;;4933823;29;20043;-65
2022/11/03 03:25:02;;;;;;;6.38;2.10;;;10.70;99.90;;;;;;4932454;29;20044;-63
2022/11/03 03:27:31;;;;;;;12.25;2.30;;;10.60;99.90;;;;;;4916421;29;20102;-64
2022/11/03 03:30:05;;;;;;;10.88;2.42;;;10.60;99.90;;;;;;4931095;29;20119;-64
2022/11/03 03:32:36;;;;;;;13.38;2.33;;;10.50;99.90;;;;;;4930758;29;20118;-65
2022/11/03 03:35:06;;;;;;;14.13;2.28;;;10.60;99.90;;;;;;4930898;29;20039;-64
2022/11/03 03:37:34;;;;;;;;;;;10.70;99.90;;;;;;4926665;29;20036;-64
2022/11/03 03:40:04;;;;;;;11.35;2.25;;;10.80;99.90;;;;;;4927490;29;19926;-65
2022/11/03 03:42:30;;;;;;;12.80;2.08;;;10.70;99.90;;;;;;4927345;29;20167;-64
2022/11/03 03:44:58;;;;;;;10.48;2.85;;;10.60;99.90;;;;;;4926290;29;20067;-64
2022/11/03 03:47:28;;;;;;;8.90;2.35;;;10.70;99.90;;;;;;4928621;29;20047;-64
2022/11/03 03:49:54;;;;;;;13.98;2.50;;;10.60;99.90;;;;;;4928444;29;20044;-64
2022/11/03 03:52:21;;;;;;;9.70;2.60;;;10.70;99.90;;;;;;4924197;29;20062;-64
2022/11/03 03:54:46;;;;;;;15.23;2.38;;;10.70;99.90;;;;;;4926486;29;20036;-67
2022/11/03 03:57:15;;;;;;;9.15;2.33;;;10.70;99.90;;;;;;4924060;29;20181;-68
2022/11/03 03:59:42;;;;;;;9.13;2.00;;;10.70;99.90;;;;;;4930545;29;20044;-68
2022/11/03 04:02:08;;;;;;;11.55;2.42;;;10.70;99.90;;;;;;4923925;29;20068;-67
2022/11/03 04:04:34;;;;;;;10.82;2.67;;;10.70;99.90;;;;;;4901558;29;20476;-68
2022/11/03 04:09:43;;;;;;;10.77;2.08;;;10.60;99.90;;;;;;4924711;29;20083;-67
2022/11/03 04:23:10;;;;;;;10.70;2.78;;;10.60;99.90;;;;;;4925514;29;20143;-67
2022/11/03 04:25:35;;;;;;;9.45;2.42;;;10.70;99.90;;;;;;4926315;29;20130;-68
2022/11/03 04:28:07;;;;;;;10.45;2.35;;;10.60;99.90;;;;;;4929762;29;20038;-67
2022/11/03 04:30:33;;;;;;;11.32;2.35;;;10.60;99.90;;;;;;4927055;29;20068;-67
2022/11/03 04:32:59;;;;;;;9.65;2.17;;;10.50;99.90;;;;;;4928547;29;20043;-68
2022/11/03 04:35:27;;;;;;;9.80;2.55;;;10.50;99.90;;;;;;4931657;29;20035;-66
2022/11/03 04:38:08;;;;;;;14.43;2.75;;;10.60;99.90;;;;;;4931791;29;20046;-68
2022/11/03 04:40:34;;;;;;;7.47;2.00;;;10.60;99.90;;;;;;4929896;29;20127;-68
2022/11/03 04:42:59;;;;;;;7.72;2.08;;;10.50;99.90;;;;;;4908430;29;20166;-68
2022/11/03 04:45:32;;;;;;;11.65;2.60;;;10.60;99.90;;;;;;4893257;29;20035;-64
2022/11/03 04:48:01;;;;;;;10.88;2.72;;;10.60;99.90;;;;;;4909130;29;20044;-67
2022/11/03 04:50:27;;;;;;;9.70;1.90;;;10.60;99.90;;;;;;4923234;29;20131;-67
2022/11/03 04:52:56;;;;;;;7.35;2.25;;;10.50;99.90;;;;;;4924242;29;20554;-65
2022/11/03 04:55:21;;;;;;;8.57;2.05;;;10.50;99.90;;;;;;4907492;29;20027;-65
2022/11/03 04:57:50;;;;;;;8.57;2.85;;;10.50;99.90;;;;;;4922919;29;20052;-66
2022/11/03 05:00:17;;;;;;;11.35;2.80;;;10.40;99.90;;;;;;4925752;29;20102;-68
2022/11/03 05:02:45;;;;;;;9.90;3.00;;;10.40;99.90;;;;;;4888539;29;20424;-67
2022/11/03 05:05:20;;;;;;;12.00;2.70;;;10.40;99.90;;;;;;4914179;29;20051;-67
2022/11/03 05:07:48;;;;;;;12.40;3.13;;;10.40;99.90;;;;;;4924197;29;20039;-67
2022/11/03 05:10:22;;;;;;;11.98;2.75;;;10.40;99.90;;;;;;4906983;29;20111;-67
2022/11/03 05:12:48;;;;;;;13.05;2.63;;;10.50;99.90;;;;;;4921261;29;20035;-67
2022/11/03 05:15:30;;;;;;;10.18;2.72;;;10.40;99.90;;;;;;4927359;29;20036;-67
2022/11/03 05:17:58;;;;;;;10.18;2.60;;;10.50;99.90;;;;;;4905244;29;20510;-68
2022/11/03 05:20:43;;;;;;;6.72;2.40;;;10.50;99.90;;;;;;4909963;29;20042;-68
2022/11/03 05:23:10;;;;;;;11.73;3.20;;;10.50;99.90;;;;;;4923298;29;20040;-67
2022/11/03 05:25:49;;;;;;;7.63;2.88;;;10.50;99.90;;;;;;4924759;29;20050;-67
2022/11/03 05:28:20;;;;;;;11.63;2.38;;;10.50;99.90;;;;;;4923663;29;20655;-67
2022/11/03 05:30:49;;;;;;;12.60;2.47;;;10.60;99.90;;;;;;4908475;29;20114;-67
2022/11/03 05:33:35;;;;;;;13.18;2.60;;;10.50;99.90;;;;;;4912411;29;21234;-67
2022/11/03 05:36:13;;;;;;;11.50;2.42;;;10.50;99.90;;;;;;4923727;29;20087;-67
2022/11/03 05:38:38;;;;;;;11.65;2.40;;;10.40;99.90;;;;;;4906999;29;20055;-67
2022/11/03 05:41:13;;;;;;;10.00;2.75;;;10.50;99.90;;;;;;4928817;29;20044;-66
2022/11/03 05:43:38;;;;;;;10.15;2.47;;;10.60;99.90;;;;;;4931935;29;20460;-66
2022/11/03 05:46:04;;;;;;;13.32;2.55;;;10.50;99.90;;;;;;4910492;29;20044;-68
2022/11/03 05:48:34;;;;;;;7.18;2.00;;;10.50;99.90;;;;;;4924301;29;20075;-67
2022/11/03 05:51:09;;;;;;;10.17;2.60;;;10.50;99.90;;;;;;4930080;29;20041;-68
2022/11/03 05:53:38;;;;;;;12.05;2.40;;;10.50;99.90;;;;;;4930970;29;20054;-66
2022/11/03 05:56:05;;;;;;;13.45;2.67;;;10.50;99.90;;;;;;4907254;29;20407;-65
2022/11/03 05:58:34;;;;;;;9.00;2.67;;;10.70;99.90;;;;;;4909659;29;20083;-67
2022/11/03 06:01:04;;;;;;;10.98;2.22;;;10.50;99.90;;;;;;4911393;29;20067;-66
2022/11/03 06:03:33;;;;;;;10.70;2.40;;;10.60;99.90;;;;;;4931884;29;20047;-68
2022/11/03 06:06:00;;;;;;;13.25;2.35;;;10.50;99.90;;;;;;4927657;29;20974;-67
2022/11/03 06:08:34;;;;;;;9.48;2.38;;;10.70;99.90;;;;;;4923339;29;20158;-67
2022/11/03 06:11:02;;;;;;;7.60;2.25;;;10.70;99.90;;;;;;4921800;29;20146;-69
2022/11/03 06:13:34;;;;;;;11.73;2.35;;;10.70;99.90;;;;;;4922970;29;20035;-67
2022/11/03 06:16:24;;;;;;;12.18;2.55;;;10.60;99.90;;;;;;4926267;29;20055;-68
2022/11/03 06:18:50;;;;;;;13.27;2.72;;;10.70;99.90;;;;;;4919015;29;20109;-67
2022/11/03 06:21:20;;;;;;;12.32;2.70;;;10.70;99.90;;;;;;4913667;29;20113;-67
2022/11/03 06:23:46;;;;;;;13.35;2.70;;;10.70;99.90;;;;;;4927960;29;20043;-67
2022/11/03 06:26:21;;;;;;;11.05;2.78;;;10.60;99.90;;;;;;4924785;29;20046;-66
2022/11/03 06:28:47;;;;;;;9.30;2.63;;;10.70;99.90;;;;;;4923929;29;20104;-67
2022/11/03 06:31:21;;;;;;;10.50;2.53;;;10.70;99.90;;;;;;4925563;29;20050;-66
2022/11/03 06:33:48;;;;;;;13.25;2.60;;;10.80;99.90;;;;;;4930127;29;20484;-67
2022/11/03 06:36:18;;;;;;;8.50;2.58;;;10.80;99.90;;;;;;4924978;29;20724;-67
2022/11/03 06:38:52;;;;;;;9.15;2.83;;;10.70;99.90;;;;;;4925330;29;20444;-68
2022/11/03 06:41:24;;;;;;;11.95;2.50;;;10.80;99.90;;;;;;4911220;29;20102;-67
2022/11/03 06:43:49;;;;;;;11.90;2.65;;;10.70;99.90;;;;;;4925929;29;20087;-67
2022/11/03 06:46:23;;;;;;;8.98;2.60;;;10.70;99.90;;;;;;4927675;29;20031;-68
2022/11/03 06:48:51;;;;;;;10.80;2.10;;;10.80;99.90;;;;;;4932489;29;20062;-67
2022/11/03 06:51:21;;;;;;;8.43;2.53;;;10.80;99.90;;;;;;4930242;29;20043;-67
2022/11/03 06:53:48;;;;;;;9.45;2.40;;;10.80;99.90;;;;;;4924474;29;20055;-67
2022/11/03 06:56:18;;;;;;;9.02;2.60;;;10.80;99.90;;;;;;4900960;29;20147;-68
2022/11/03 06:58:45;;;;;;;12.60;2.65;;;10.70;99.90;;;;;;4926401;29;20048;-68
2022/11/03 07:01:24;;;;;;;10.75;2.90;;;10.70;99.90;;;;;;4928897;29;20064;-69
2022/11/03 07:03:55;;;;;;;6.90;2.53;;;10.80;99.90;;;;;;4926903;29;20404;-67
2022/11/03 07:06:24;;;;;;;11.38;2.80;;;10.90;99.90;;;;;;4928157;29;20040;-68
2022/11/03 07:08:54;;;;;;;12.18;2.83;;;11.00;99.90;;;;;;4926613;29;20181;-67
2022/11/03 07:11:29;;;;;;;9.93;2.20;;;11.00;99.90;;;;;;4929167;29;20123;-67
2022/11/03 07:13:57;;;;;;;6.38;2.40;;;10.90;99.90;;;;;;4906209;29;20385;-67
2022/11/03 07:16:34;;;;;;;10.10;2.47;;;10.90;99.90;;;;;;4925841;29;20118;-68
2022/11/03 07:19:03;;;;;;;7.32;2.38;;;10.90;99.90;;;;;;4905532;29;20079;-67
2022/11/03 07:21:44;;;;;;;10.23;2.65;;;10.90;99.90;;;;;;4929949;29;20039;-68
2022/11/03 07:24:20;;;;;;;12.52;2.47;;;11.00;99.90;;;;;;4933885;29;20051;-67
2022/11/03 07:26:46;;;;;;;11.48;2.75;;;11.10;99.90;;;;;;4916559;29;20071;-67
2022/11/03 07:29:18;;;;;;;7.95;2.30;;;11.10;99.90;;;;;;4933431;29;20500;-65
2022/11/03 07:31:44;;;;;;;7.43;2.58;;;11.30;99.90;;;;;;4910411;29;20063;-66
2022/11/03 07:34:14;;;;;;;10.90;2.65;;;11.30;99.90;;;;;;4913888;29;20044;-66
2022/11/03 07:36:42;;;;;;;11.02;2.42;;;11.40;99.90;;;;;;4932412;29;20049;-66
2022/11/03 07:39:14;;;;;;;7.93;2.70;;;11.40;99.90;;;;;;4932081;29;20043;-69
2022/11/03 07:41:39;;;;;;;8.23;2.97;;;11.50;99.90;;;;;;4933469;29;20046;-67
2022/11/03 07:44:12;;;;;;;9.23;2.42;;;11.50;99.90;;;;;;4933806;29;20702;-67
2022/11/03 07:46:38;;;;;;;12.45;2.60;;;11.60;99.90;;;;;;4898649;29;20042;-68
2022/11/03 07:49:08;;;;;;;9.40;2.92;;;11.60;99.90;;;;;;4923027;29;20548;-68
2022/11/03 07:51:37;;;;;;;;;;;11.60;99.90;;;;;;4934594;29;20520;-67
2022/11/03 07:54:27;;;;;;;10.48;2.67;;;11.70;99.90;;;;;;4934815;29;20422;-68
2022/11/03 07:56:57;;;;;;;9.50;2.30;;;11.70;99.90;;;;;;4917496;29;20048;-68
2022/11/03 07:59:40;;;;;;;10.18;2.30;;;11.80;99.90;;;;;;4915345;29;20800;-68
2022/11/03 08:02:31;;;;;;;10.32;2.40;;;11.80;99.90;;;;;;4932551;29;20059;-66
2022/11/03 08:04:57;;;;;;;12.35;2.58;;;11.80;99.90;;;;;;4930160;29;20101;-68
2022/11/03 08:07:23;;;;;;;9.90;2.45;;;11.90;99.90;;;;;;4930618;29;20118;-67
2022/11/03 08:09:49;;;;;;;10.38;2.20;;;11.90;99.90;;;;;;4932941;29;20114;-68
2022/11/03 08:12:15;;;;;;;9.13;2.33;;;12.00;99.90;;;;;;4934317;29;20040;-67
2022/11/03 08:14:40;;;;;;;10.80;2.72;;;12.00;99.90;;;;;;4930567;29;20062;-68
2022/11/03 08:17:06;;;;;;;7.32;2.72;;;12.00;99.90;;;;;;4930806;29;20051;-67
2022/11/03 08:19:32;;;;;;;14.40;3.53;;;12.10;99.90;;;;;;4930096;29;20476;-67
2022/11/03 08:21:57;;;;;;;9.10;2.70;;;12.10;99.90;;;;;;4933882;29;20047;-67
2022/11/03 08:24:23;;;;;;;12.80;3.05;;;12.10;99.90;;;;;;4913336;29;20793;-68
2022/11/03 08:26:48;;;;;;;10.18;2.63;;;12.20;99.90;;;;;;4932376;29;20043;-67
2022/11/03 08:29:16;;;;;;;12.52;2.67;;;12.20;99.90;;;;;;4935610;29;20044;-68
2022/11/03 08:31:42;;;;;;;10.23;2.70;;;12.30;99.90;;;;;;4933626;29;20043;-68
2022/11/03 08:34:08;;;;;;;10.15;2.88;;;12.30;99.90;;;;;;4912491;29;20094;-67
2022/11/03 08:36:33;;;;;;;9.95;2.55;;;12.30;99.90;;;;;;4934280;29;20395;-68
2022/11/03 08:38:59;;;;;;;12.43;2.55;;;12.30;99.90;;;;;;4932740;29;20047;-67
2022/11/03 08:41:24;;;;;;;16.10;3.17;;;12.30;99.90;;;;;;4924671;29;20025;-67
2022/11/03 08:43:50;;;;;;;11.05;2.85;;;12.40;99.90;;;;;;4914768;29;20114;-68
2022/11/03 08:46:15;;;;;;;11.05;2.80;;;12.40;99.90;;;;;;4915596;29;20387;-68
2022/11/03 08:48:41;;;;;;;11.60;2.75;;;12.40;99.90;;;;;;4929763;29;20178;-66
2022/11/03 08:51:12;;;;;;;9.18;2.63;;;12.50;99.90;;;;;;4932212;29;20142;-68
2022/11/03 08:53:38;;;;;;;9.43;2.65;;;12.50;99.90;;;;;;4929842;29;20047;-68
2022/11/03 08:56:04;;;;;;;13.30;3.10;;;12.60;99.90;;;;;;4932144;29;20539;-68
2022/11/03 08:58:30;;;;;;;12.43;2.70;;;12.70;99.90;;;;;;4898393;29;20804;-68
2022/11/03 09:00:56;;;;;;;12.82;2.83;;;12.70;99.90;;;;;;4908565;29;20052;-66
2022/11/03 09:03:22;;;;;;;11.20;3.03;;;12.80;99.90;;;;;;4909607;29;20044;-67
2022/11/03 09:05:47;;;;;;;8.98;2.55;;;12.90;99.90;;;;;;4911995;29;20057;-67
2022/11/03 09:08:13;;;;;;;13.27;2.88;;;12.90;99.90;;;;;;4910151;29;20040;-68
2022/11/03 09:10:39;;;;;;;12.55;2.83;;;13.00;99.90;;;;;;4912002;29;20052;-68
2022/11/03 09:13:04;;;;;;;8.68;2.83;;;13.10;99.90;;;;;;4905357;29;20070;-68
2022/11/03 09:15:30;;;;;;;11.15;2.38;;;13.10;99.90;;;;;;4911970;29;20630;-66
2022/11/03 09:17:56;;;;;;;7.70;2.40;;;13.20;99.90;;;;;;4908316;29;20449;-68
2022/11/03 09:20:22;;;;;;;8.38;2.45;;;13.20;99.90;;;;;;4915298;29;20124;-67
2022/11/03 09:22:47;;;;;;;7.30;2.20;;;13.30;99.90;;;;;;4911286;29;20048;-69
2022/11/03 09:25:13;;;;;;;10.73;2.50;;;13.30;99.90;;;;;;4901423;29;20044;-68
2022/11/03 09:27:38;;;;;;;10.63;2.70;;;13.40;99.90;;;;;;4907087;29;20481;-66
2022/11/03 09:30:05;;;;;;;10.32;2.70;;;13.40;99.90;;;;;;4912012;29;20485;-67
2022/11/03 09:32:31;;;;;;;10.15;2.88;;;13.50;99.90;;;;;;4875922;29;20052;-68
2022/11/03 09:34:57;;;;;;;8.60;2.65;;;13.50;99.90;;;;;;4906913;29;20068;-67
2022/11/03 09:37:22;;;;;;;7.60;2.58;;;13.50;99.90;;;;;;4911570;29;20444;-66
2022/11/03 09:39:48;;;;;;;7.97;2.38;;;13.60;99.90;;;;;;4908289;29;20481;-67
2022/11/03 09:42:15;;;;;;;11.15;2.63;;;13.60;99.90;;;;;;4911928;29;20465;-69
2022/11/03 09:44:41;;;;;;;9.73;2.42;;;13.70;99.90;;;;;;4913782;29;20059;-68
2022/11/03 09:47:14;;;;;;;7.43;2.45;;;13.70;99.90;;;;;;4910413;29;20032;-67
2022/11/03 09:49:39;;;;;;;9.25;3.15;;;13.80;99.90;;;;;;4911277;29;21135;-68
2022/11/03 09:52:05;;;;;;;12.68;3.28;;;13.90;99.90;;;;;;4913055;29;20040;-68
2022/11/03 09:54:31;;;;;;;7.60;2.40;;;13.90;99.90;;;;;;4911936;29;20044;-67
2022/11/03 09:57:07;;;;;;;9.07;2.47;;;14.00;99.90;;;;;;4910452;29;20458;-68
2022/11/03 09:59:33;;;;;;;7.47;2.22;;;14.20;99.90;;;;;;4930011;29;20055;-66
2022/11/03 10:01:58;;;;;;;8.88;2.10;;;14.40;99.90;;;;;;4928194;29;20099;-67
2022/11/03 10:04:30;;;;;;;13.48;2.95;;;14.60;99.90;;;;;;4901227;29;20046;-68
2022/11/03 10:06:56;;;;;;;12.07;2.50;;;14.80;99.90;;;;;;4917893;29;20496;-67
2022/11/03 10:09:23;;;;;;;11.57;2.50;;;14.90;99.90;;;;;;4931657;29;20441;-67
2022/11/03 10:11:51;;;;;;;9.82;2.53;;;15.00;99.90;;;;;;4933299;29;20039;-66
2022/11/03 10:14:18;;;;;;;11.85;2.60;;;15.00;99.90;;;;;;4919404;29;20035;-69
2022/11/03 10:16:59;;;;;;;7.50;2.20;;;14.90;99.90;;;;;;4935912;29;20051;-64
2022/11/03 10:19:25;;;;;;;10.38;2.33;;;14.80;99.90;;;;;;4933275;29;20074;-67
2022/11/03 10:21:51;;;;;;;10.23;2.47;;;14.80;99.90;;;;;;4933375;29;20079;-68
2022/11/03 10:24:17;;;;;;;5.38;2.30;;;14.80;99.90;;;;;;4933791;29;20040;-68
2022/11/03 10:26:51;;;;;;;7.57;2.22;;;14.90;99.90;;;;;;4935360;29;20102;-66
2022/11/03 10:29:25;;;;;;;9.23;3.03;;;15.00;99.90;;;;;;4934170;29;20102;-68
2022/11/03 10:31:53;;;;;;;12.05;2.72;;;15.10;99.90;;;;;;4915477;29;20068;-68
2022/11/03 10:34:36;;;;;;;5.60;2.08;;;15.20;99.90;;;;;;4935027;29;20043;-69
2022/11/03 10:37:21;;;;;;;7.00;1.95;;;15.20;99.90;;;;;;4930260;29;20055;-65
2022/11/03 10:39:49;;;;;;;8.82;2.40;;;15.30;99.90;;;;;;4918084;29;20044;-67
2022/11/03 10:42:23;;;;;;;9.68;2.50;;;15.20;99.90;;;;;;4922744;29;20520;-68
2022/11/03 10:44:53;;;;;;;7.85;2.45;;;15.30;99.90;;;;;;4909496;29;20058;-68
2022/11/03 10:47:25;;;;;;;10.10;2.55;;;15.20;99.90;;;;;;4929804;29;20514;-65
2022/11/03 10:49:51;;;;;;;10.50;2.22;;;15.10;99.90;;;;;;4920009;29;20174;-68
2022/11/03 10:52:25;;;;;;;7.50;2.58;;;15.00;99.90;;;;;;4930324;29;20047;-70
2022/11/03 10:54:53;;;;;;;9.98;2.28;;;15.00;99.90;;;;;;4916288;29;20488;-67
2022/11/03 10:57:20;;;;;;;9.40;2.75;;;15.10;99.90;;;;;;4916137;29;20419;-68
2022/11/03 10:59:49;;;;;;;8.70;1.90;;;15.20;99.90;;;;;;4917982;29;20055;-67
2022/11/03 11:02:18;;;;;;;6.35;2.10;;;15.30;99.90;;;;;;4933056;29;20412;-67
2022/11/03 11:04:46;;;;;;;12.60;2.42;;;15.40;99.90;;;;;;4934533;29;20039;-67
2022/11/03 11:07:18;;;;;;;8.93;2.60;;;15.30;99.90;;;;;;4916965;29;20043;-66
2022/11/03 11:09:43;;;;;;;9.38;1.98;;;15.30;99.90;;;;;;4932809;29;20122;-66
2022/11/03 11:12:17;;;;;;;7.70;2.17;;;15.30;99.90;;;;;;4932529;29;20046;-67
2022/11/03 11:14:58;;;;;;;10.23;2.38;;;15.40;99.90;;;;;;4936350;29;20118;-66
2022/11/03 11:17:45;;;;;;;10.45;2.65;;;15.50;99.90;;;;;;4932409;29;20047;-65
2022/11/03 11:20:17;;;;;;;11.75;2.83;;;15.60;99.90;;;;;;4916740;29;20594;-67
2022/11/03 11:22:44;;;;;;;5.90;2.10;;;15.60;99.90;;;;;;4895406;29;20048;-67
2022/11/03 11:25:09;;;;;;;11.32;2.20;;;15.60;99.90;;;;;;4931827;29;20075;-67
2022/11/03 11:27:35;;;;;;;10.93;2.45;;;15.60;99.90;;;;;;4931138;29;20542;-66
2022/11/03 11:30:03;;;;;;;7.90;2.35;;;15.50;99.90;;;;;;4932667;29;20476;-64
2022/11/03 11:32:38;;;;;;;7.55;2.70;;;15.40;99.90;;;;;;4912227;29;20041;-66
2022/11/03 11:35:16;;;;;;;10.77;2.50;;;15.30;99.90;;;;;;4929681;29;20468;-67
2022/11/03 11:37:42;;;;;;;7.75;2.00;;;15.20;99.90;;;;;;4931772;29;20522;-67
2022/11/03 11:40:31;;;;;;;7.70;2.42;;;15.20;99.90;;;;;;4917644;29;20095;-66
2022/11/03 11:43:05;;;;;;;9.77;2.65;;;15.20;99.90;;;;;;4932375;29;20069;-67
2022/11/03 11:46:08;;;;;;;10.40;2.40;;;15.20;99.90;;;;;;4936885;29;20054;-64
2022/11/03 11:48:35;;;;;;;8.10;2.00;;;15.20;99.90;;;;;;4933812;29;20092;-67
2022/11/03 11:51:02;;;;;;;7.47;2.35;;;15.20;99.90;;;;;;4933009;29;20051;-68
2022/11/03 11:53:36;;;;;;;7.88;2.10;;;15.20;99.90;;;;;;4932947;29;20126;-67
2022/11/03 11:56:01;;;;;;;6.50;2.13;;;15.20;99.90;;;;;;4935361;29;20059;-68
2022/11/03 11:58:44;;;;;;;10.63;1.95;;;15.20;99.90;;;;;;4929621;29;20051;-66
2022/11/03 12:01:31;;;;;;;8.23;2.22;;;15.20;99.90;;;;;;4933983;29;20066;-67
2022/11/03 12:04:25;;;;;;;10.30;2.20;;;15.20;99.90;;;;;;4927247;29;20397;-67
2022/11/03 12:06:50;;;;;;;9.52;2.10;;;15.20;99.90;;;;;;4919540;29;20389;-66
2022/11/03 12:09:22;;;;;;;8.93;1.98;;;15.20;99.90;;;;;;4929632;29;20059;-69
2022/11/03 12:11:54;;;;;;;7.72;2.20;;;15.20;99.90;;;;;;4931394;29;20047;-68
2022/11/03 12:14:34;;;;;;;8.52;2.15;;;15.20;99.90;;;;;;4932600;29;20127;-67
2022/11/03 12:17:30;;;;;;;7.82;1.70;;;15.20;99.90;;;;;;4931018;29;20043;-67
2022/11/03 12:19:56;;;;;;;6.45;1.83;;;15.10;99.90;;;;;;4928350;29;20055;-64
2022/11/03 12:22:27;;;;;;;7.40;2.00;;;15.10;99.90;;;;;;4932102;29;20062;-67
2022/11/03 12:25:00;;;;;;;9.02;1.85;;;15.00;99.90;;;;;;4910859;29;20047;-66
2022/11/03 12:27:26;;;;;;;8.65;2.00;;;15.00;99.90;;;;;;4931823;29;20358;-67
2022/11/03 12:29:53;;;;;;;8.18;2.10;;;14.90;99.90;;;;;;4930607;29;20051;-65
2022/11/03 12:32:20;;;;;;;4.28;1.70;;;14.90;99.90;;;;;;4910861;29;20053;-64
2022/11/03 12:34:45;;;;;;;9.20;1.98;;;14.90;99.90;;;;;;4913337;29;20040;-66
2022/11/03 12:37:11;;;;;;;7.53;2.08;;;14.80;99.90;;;;;;4947065;29;20043;-67
2022/11/03 12:39:37;;;;;;;6.55;1.92;;;14.80;99.90;;;;;;4916491;29;20044;-68
2022/11/03 12:42:03;;;;;;;7.00;1.65;;;14.80;99.90;;;;;;4920727;29;20460;-66
2022/11/03 12:44:29;;;;;;;8.43;1.83;;;14.80;99.90;;;;;;4915596;29;20479;-65
2022/11/03 12:46:54;;;;;;;4.88;1.90;;;14.70;99.90;;;;;;4932601;29;20078;-66
2022/11/03 12:49:20;;;;;;;6.18;1.60;;;14.80;99.90;;;;;;4915100;29;20106;-65
2022/11/03 12:51:46;;;;;;;8.85;1.80;;;14.70;99.90;;;;;;4933445;29;20039;-67
2022/11/03 12:54:11;;;;;;;8.68;2.15;;;14.70;99.90;;;;;;4901961;29;20046;-67
2022/11/03 12:56:37;;;;;;;6.40;2.33;;;14.70;99.90;;;;;;4930075;29;20098;-63
2022/11/03 12:59:03;;;;;;;8.45;2.03;;;14.70;99.90;;;;;;4933291;29;20495;-66
2022/11/03 13:01:28;;;;;;;7.43;1.65;;;14.70;99.90;;;;;;4931519;29;20404;-65
2022/11/03 13:03:54;;;;;;;6.65;2.40;;;14.70;99.90;;;;;;4913423;29;20213;-66
2022/11/03 13:06:19;;;;;;;6.93;1.67;;;14.70;99.90;;;;;;4933340;29;20126;-66
2022/11/03 13:08:46;;;;;;;5.32;1.77;;;14.70;99.90;;;;;;4914459;29;20031;-65
2022/11/03 13:13:56;;;;;;;9.32;2.20;;;14.70;99.90;;;;;;4932700;29;20047;-66
2022/11/03 13:16:22;;;;;;;5.05;1.77;;;14.70;99.90;;;;;;4931466;29;20440;-66
2022/11/03 13:18:47;;;;;;;4.88;1.65;;;14.70;99.90;;;;;;4932757;29;20046;-66